Terminal Aerodrome Forecast
Issued by NWS

Home | Current Version | Previous Version | Text Only | Print | Product List | Glossary On
Versions: 1 2 3 4 5 6 7 8 9
000
FTUS46 KSEW 261700
TAFHQM
TAF
KHQM 261721Z 2618/2718 05008KT 4SM BR OVC010
     FM270900 06004KT P6SM -RA OVC015
     FM271300 21008KT 4SM -RA BR OVC010=

USA.gov is the U.S. government's official web portal to all federal, state and local government web resources and services.